createdAt,value
2018-08-17T00:02:15.271Z,7.33
2018-08-17T00:04:43.457Z,8.30
2018-08-17T00:07:11.997Z,8.33
2018-08-17T00:09:40.535Z,8.03
2018-08-17T00:12:09.804Z,7.93
2018-08-17T00:14:39.842Z,8.40
2018-08-17T00:17:08.147Z,8.67
2018-08-17T00:19:36.395Z,8.33
2018-08-17T00:22:04.631Z,8.17
2018-08-17T00:24:32.822Z,8.67
2018-08-17T00:27:01.028Z,8.57
2018-08-17T00:29:29.355Z,6.83
2018-08-17T00:31:59.439Z,7.37
2018-08-17T00:34:27.687Z,8.03
2018-08-17T00:36:55.915Z,9.17
2018-08-17T00:39:24.105Z,8.07
2018-08-17T00:41:52.379Z,7.87
2018-08-17T00:44:22.926Z,7.80
2018-08-17T00:46:51.152Z,7.10
2018-08-17T00:49:19.350Z,8.57
2018-08-17T00:51:47.627Z,7.43
2018-08-17T00:54:15.851Z,8.00
2018-08-17T00:56:49.535Z,7.70
2018-08-17T00:59:17.826Z,7.77
2018-08-17T01:01:46.026Z,7.03
2018-08-17T01:04:14.248Z,7.00
2018-08-17T01:06:42.423Z,6.73
2018-08-17T01:09:10.934Z,8.77
2018-08-17T01:11:39.163Z,7.70
2018-08-17T01:14:07.380Z,7.33
2018-08-17T01:16:36.405Z,7.67
2018-08-17T01:19:04.617Z,7.30
2018-08-17T01:21:32.802Z,7.67
2018-08-17T01:24:01.232Z,8.00
2018-08-17T01:26:29.441Z,6.63
2018-08-17T01:28:57.700Z,7.27
2018-08-17T01:31:25.893Z,8.10
2018-08-17T01:33:54.133Z,6.67
2018-08-17T01:36:22.314Z,6.80
2018-08-17T01:38:50.564Z,7.07
2018-08-17T01:41:18.870Z,7.37
2018-08-17T01:43:47.090Z,7.97
2018-08-17T01:46:15.324Z,8.07
2018-08-17T01:48:43.632Z,7.33
2018-08-17T01:51:11.831Z,8.33
2018-08-17T01:53:40.083Z,7.47
2018-08-17T01:56:08.291Z,8.00
2018-08-17T01:58:36.530Z,7.70
2018-08-17T02:01:04.736Z,8.70
2018-08-17T02:03:32.970Z,7.43
2018-08-17T02:06:01.260Z,7.83
2018-08-17T02:08:29.482Z,7.90
2018-08-17T02:10:57.714Z,7.03
2018-08-17T02:13:26.007Z,8.47
2018-08-17T02:15:54.414Z,8.87
2018-08-17T02:18:22.606Z,8.47
2018-08-17T02:20:50.867Z,8.00
2018-08-17T02:23:19.045Z,6.93
2018-08-17T02:25:47.247Z,6.87
2018-08-17T02:28:15.443Z,8.33
2018-08-17T02:30:43.648Z,7.90
2018-08-17T02:33:11.870Z,9.33
2018-08-17T02:35:40.071Z,8.07
2018-08-17T02:38:08.365Z,8.37
2018-08-17T02:40:36.559Z,7.67
2018-08-17T02:43:04.826Z,8.43
2018-08-17T02:45:33.179Z,7.80
2018-08-17T02:48:01.411Z,8.40
2018-08-17T02:50:29.588Z,9.07
2018-08-17T02:52:57.795Z,7.37
2018-08-17T02:55:26.016Z,7.03
2018-08-17T02:57:54.246Z,7.53
2018-08-17T03:00:22.487Z,6.73
2018-08-17T03:02:50.688Z,7.60
2018-08-17T03:05:18.907Z,7.47
2018-08-17T03:07:47.134Z,7.80
2018-08-17T03:10:15.383Z,7.27
2018-08-17T03:12:43.598Z,7.17
2018-08-17T03:15:11.803Z,7.37
2018-08-17T03:20:14.626Z,7.23
2018-08-17T03:22:42.935Z,5.70
2018-08-17T03:25:11.159Z,6.83
2018-08-17T03:27:39.384Z,8.53
2018-08-17T03:30:07.572Z,6.93
2018-08-17T03:32:35.815Z,6.00
2018-08-17T03:35:04.492Z,6.93
2018-08-17T03:37:33.123Z,6.67
2018-08-17T03:40:01.390Z,6.80
2018-08-17T03:42:29.584Z,6.37
2018-08-17T03:44:57.803Z,6.50
2018-08-17T03:47:26.067Z,6.30
2018-08-17T03:49:54.257Z,7.53
2018-08-17T03:52:22.518Z,7.63
2018-08-17T03:54:50.720Z,6.37
2018-08-17T03:57:19.095Z,7.33
2018-08-17T03:59:47.380Z,7.60
2018-08-17T04:02:15.575Z,7.40
2018-08-17T04:04:43.798Z,7.30
2018-08-17T04:07:12.019Z,8.23
2018-08-17T04:09:40.219Z,7.03
2018-08-17T04:12:08.471Z,7.50
2018-08-17T04:14:36.687Z,8.20
2018-08-17T04:17:04.931Z,7.63
2018-08-17T04:19:33.105Z,7.53
2018-08-17T04:22:01.317Z,7.20
2018-08-17T04:24:29.503Z,7.47
2018-08-17T04:26:57.741Z,6.77
2018-08-17T04:29:25.934Z,6.67
2018-08-17T04:31:54.131Z,7.83
2018-08-17T04:34:22.427Z,7.70
2018-08-17T04:36:50.629Z,7.70
2018-08-17T04:39:18.812Z,6.47
2018-08-17T04:41:47.012Z,6.70
2018-08-17T04:44:15.348Z,6.80
2018-08-17T04:46:43.578Z,6.43
2018-08-17T04:49:11.802Z,6.63
2018-08-17T04:51:40.022Z,7.27
2018-08-17T04:54:08.242Z,7.47
2018-08-17T04:56:36.515Z,7.07
2018-08-17T04:59:04.748Z,6.27
2018-08-17T05:01:32.958Z,6.10
2018-08-17T05:04:01.184Z,5.90
2018-08-17T05:06:29.386Z,7.03
2018-08-17T05:08:57.619Z,7.13
2018-08-17T05:11:25.851Z,6.83
2018-08-17T05:13:54.065Z,6.40
2018-08-17T05:16:22.267Z,6.87
2018-08-17T05:18:50.534Z,7.80
2018-08-17T05:21:18.720Z,7.60
2018-08-17T05:23:46.927Z,7.13
2018-08-17T05:26:15.143Z,14.77
2018-08-17T05:28:43.384Z,11.20
2018-08-17T05:31:11.627Z,7.03
2018-08-17T05:33:39.866Z,7.17
2018-08-17T05:36:08.106Z,7.23
2018-08-17T05:38:36.326Z,7.37
2018-08-17T05:41:04.543Z,7.57
2018-08-17T05:43:32.769Z,5.67
2018-08-17T05:46:00.940Z,6.10
2018-08-17T05:48:29.146Z,6.67
2018-08-17T05:50:57.366Z,5.93
2018-08-17T05:53:25.549Z,5.80
2018-08-17T05:55:53.777Z,5.10
2018-08-17T05:58:21.989Z,6.50
2018-08-17T06:00:50.204Z,5.70
2018-08-17T06:03:18.467Z,7.93
2018-08-17T06:05:46.686Z,7.63
2018-08-17T06:08:14.925Z,8.27
2018-08-17T06:10:43.124Z,8.13
2018-08-17T06:13:11.394Z,7.40
2018-08-17T06:15:39.707Z,7.87
2018-08-17T06:18:08.067Z,7.73
2018-08-17T06:20:36.319Z,7.07
2018-08-17T06:23:04.626Z,6.83
2018-08-17T06:25:32.830Z,7.37
2018-08-17T06:28:01.063Z,6.20
2018-08-17T06:30:29.283Z,7.43
2018-08-17T06:32:57.519Z,6.40
2018-08-17T06:35:25.724Z,5.20
2018-08-17T06:37:53.996Z,5.97
2018-08-17T06:40:22.205Z,6.37
2018-08-17T06:42:50.443Z,5.83
2018-08-17T06:45:18.622Z,6.13
2018-08-17T06:47:46.858Z,5.90
2018-08-17T06:50:15.087Z,6.27
2018-08-17T06:52:43.467Z,6.23
2018-08-17T06:55:12.448Z,6.17
2018-08-17T06:57:40.886Z,6.60
2018-08-17T07:00:13.783Z,6.63
2018-08-17T07:02:43.042Z,6.17
2018-08-17T07:05:11.191Z,5.17
2018-08-17T07:07:39.735Z,5.33
2018-08-17T07:10:09.467Z,6.57
2018-08-17T07:12:38.380Z,5.87
2018-08-17T07:15:06.815Z,4.70
2018-08-17T07:17:35.335Z,4.70
2018-08-17T07:20:05.029Z,5.67
2018-08-17T07:22:36.081Z,5.20
2018-08-17T07:25:04.527Z,5.37
2018-08-17T07:27:32.810Z,4.63
2018-08-17T07:30:01.185Z,4.43
2018-08-17T07:32:30.047Z,4.43
2018-08-17T07:34:58.237Z,4.37
2018-08-17T07:37:26.508Z,3.47
2018-08-17T07:39:54.760Z,3.43
2018-08-17T07:42:23.003Z,2.87
2018-08-17T07:44:51.181Z,3.20
2018-08-17T07:47:19.641Z,3.40
2018-08-17T07:49:48.443Z,2.93
2018-08-17T07:52:16.666Z,3.20
2018-08-17T07:54:44.867Z,3.00
2018-08-17T07:57:13.044Z,3.03
2018-08-17T07:59:41.307Z,3.13
2018-08-17T08:02:10.292Z,3.90
2018-08-17T08:04:38.560Z,3.27
2018-08-17T08:07:07.915Z,3.57
2018-08-17T08:09:36.327Z,3.70
2018-08-17T08:12:05.051Z,2.87
2018-08-17T08:14:33.247Z,3.00
2018-08-17T08:17:01.423Z,2.43
2018-08-17T08:19:29.670Z,2.43
2018-08-17T08:21:57.883Z,2.70
2018-08-17T08:24:26.075Z,2.67
2018-08-17T08:26:54.338Z,2.53
2018-08-17T08:29:22.512Z,2.80
2018-08-17T08:31:50.706Z,2.73
2018-08-17T08:34:18.933Z,2.80
2018-08-17T08:36:47.131Z,4.27
2018-08-17T08:39:15.395Z,4.13
2018-08-17T08:41:43.608Z,3.63
2018-08-17T08:44:11.802Z,3.47
2018-08-17T08:46:40.004Z,3.23
2018-08-17T08:49:08.235Z,3.27
2018-08-17T08:51:36.435Z,3.37
2018-08-17T08:54:05.363Z,2.57
2018-08-17T08:56:33.715Z,2.77
2018-08-17T08:59:01.936Z,2.00
2018-08-17T09:01:30.194Z,1.97
2018-08-17T09:03:58.369Z,2.20
2018-08-17T09:06:26.565Z,2.30
2018-08-17T09:08:54.821Z,2.60
2018-08-17T09:11:23.054Z,2.57
2018-08-17T09:13:51.271Z,2.73
2018-08-17T09:16:19.592Z,2.97
2018-08-17T09:18:47.816Z,3.00
2018-08-17T09:21:16.019Z,2.87
2018-08-17T09:23:44.219Z,2.70
2018-08-17T09:26:12.446Z,2.60
2018-08-17T09:28:40.702Z,3.03
2018-08-17T09:31:09.028Z,2.90
2018-08-17T09:33:37.607Z,3.27
2018-08-17T09:36:05.806Z,3.70
2018-08-17T09:38:34.069Z,3.97
2018-08-17T09:41:02.396Z,3.17
2018-08-17T09:43:30.584Z,3.73
2018-08-17T09:45:58.831Z,3.53
2018-08-17T09:48:27.043Z,4.60
2018-08-17T09:51:07.944Z,3.40
2018-08-17T09:53:36.162Z,20.57
2018-08-17T09:56:04.362Z,5.60
2018-08-17T09:58:32.563Z,10.40
2018-08-17T10:01:06.243Z,8.37
2018-08-17T10:03:40.093Z,4.43
2018-08-17T10:06:13.600Z,4.27
2018-08-17T10:11:34.614Z,3.40
2018-08-17T10:14:02.815Z,3.40
2018-08-17T10:16:30.986Z,6.40
2018-08-17T10:18:59.255Z,5.47
2018-08-17T10:21:27.764Z,6.07
2018-08-17T10:23:55.653Z,3.13
2018-08-17T10:26:23.910Z,3.47
2018-08-17T10:28:52.083Z,4.23
2018-08-17T10:31:20.363Z,3.60
2018-08-17T10:33:48.794Z,3.50
2018-08-17T10:39:10.091Z,4.03
2018-08-17T10:41:39.051Z,4.03
2018-08-17T10:44:08.489Z,3.27
2018-08-17T10:46:37.841Z,3.73
2018-08-17T10:49:06.876Z,4.10
2018-08-17T10:51:35.156Z,4.00
2018-08-17T10:54:03.946Z,3.83
2018-08-17T10:56:32.154Z,3.67
2018-08-17T10:59:00.848Z,4.37
2018-08-17T11:01:29.195Z,3.30
2018-08-17T11:03:57.382Z,9.03
2018-08-17T11:06:25.590Z,5.10
2018-08-17T11:08:53.862Z,4.00
2018-08-17T11:11:22.111Z,3.70
2018-08-17T11:13:50.392Z,2.83
2018-08-17T11:16:18.573Z,2.90
2018-08-17T11:18:46.755Z,3.07
2018-08-17T11:21:15.034Z,3.77
2018-08-17T11:23:43.397Z,3.17
2018-08-17T11:26:12.921Z,3.13
2018-08-17T11:28:41.134Z,3.10
2018-08-17T11:31:09.423Z,3.27
2018-08-17T11:33:37.730Z,3.20
2018-08-17T11:36:06.614Z,3.13
2018-08-17T11:38:35.159Z,3.60
2018-08-17T11:41:03.335Z,3.17
2018-08-17T11:43:31.510Z,3.20
2018-08-17T11:45:59.718Z,2.70
2018-08-17T11:48:33.495Z,2.53
2018-08-17T11:51:01.755Z,2.63
2018-08-17T11:53:30.264Z,3.83
2018-08-17T11:55:59.071Z,6.90
2018-08-17T11:58:27.319Z,4.33
2018-08-17T12:00:55.577Z,3.00
2018-08-17T12:03:24.759Z,3.30
2018-08-17T12:05:53.140Z,12.93
2018-08-17T12:08:21.974Z,3.67
2018-08-17T12:10:56.440Z,2.63
2018-08-17T12:13:24.727Z,2.77
2018-08-17T12:15:57.214Z,2.70
2018-08-17T12:18:26.299Z,2.40
2018-08-17T12:20:55.207Z,3.23
2018-08-17T12:23:24.355Z,2.77
2018-08-17T12:25:57.734Z,3.33
2018-08-17T12:28:27.266Z,3.43
2018-08-17T12:30:56.186Z,2.83
2018-08-17T12:33:24.410Z,3.13
2018-08-17T12:35:52.715Z,3.40
2018-08-17T12:38:20.988Z,4.07
2018-08-17T12:40:51.663Z,3.10
2018-08-17T12:43:24.103Z,4.03
2018-08-17T12:45:52.387Z,3.07
2018-08-17T12:48:20.822Z,9.07
2018-08-17T12:50:49.098Z,4.37
2018-08-17T12:53:17.969Z,3.17
2018-08-17T12:55:47.004Z,4.23
2018-08-17T12:58:15.451Z,8.07
2018-08-17T13:00:43.845Z,3.50
2018-08-17T13:03:12.205Z,3.10
2018-08-17T13:05:40.435Z,3.93
2018-08-17T13:08:08.977Z,3.60
2018-08-17T13:10:37.626Z,3.50
2018-08-17T13:13:05.839Z,3.50
2018-08-17T13:15:35.411Z,3.93
2018-08-17T13:18:17.777Z,3.07
2018-08-17T13:20:46.092Z,3.57
2018-08-17T13:23:14.464Z,3.60
2018-08-17T13:25:43.045Z,3.90
2018-08-17T13:28:12.396Z,3.07
2018-08-17T13:30:40.626Z,3.33
2018-08-17T13:33:09.018Z,3.40
2018-08-17T13:35:37.194Z,2.90
2018-08-17T13:38:06.001Z,3.27
2018-08-17T13:40:34.474Z,3.03
2018-08-17T13:43:02.727Z,2.93
2018-08-17T13:45:31.813Z,2.80
2018-08-17T13:48:00.435Z,3.07
2018-08-17T13:50:28.771Z,2.87
2018-08-17T13:52:57.043Z,3.13
2018-08-17T13:55:25.251Z,2.97
2018-08-17T13:57:53.822Z,3.03
2018-08-17T14:00:22.071Z,6.60
2018-08-17T14:02:50.373Z,4.07
2018-08-17T14:05:18.600Z,3.57
2018-08-17T14:07:47.535Z,2.87
2018-08-17T14:10:16.443Z,5.87
2018-08-17T14:12:44.798Z,3.53
2018-08-17T14:15:13.111Z,3.77
2018-08-17T14:17:41.430Z,3.33
2018-08-17T14:20:14.866Z,3.00
2018-08-17T14:22:43.272Z,2.40
2018-08-17T14:25:11.874Z,3.53
2018-08-17T14:27:40.164Z,4.00
2018-08-17T14:30:13.206Z,2.10
2018-08-17T14:32:41.818Z,2.30
2018-08-17T14:35:10.329Z,2.27
2018-08-17T14:37:38.610Z,2.20
2018-08-17T14:40:07.803Z,2.07
2018-08-17T14:42:36.040Z,2.73
2018-08-17T14:45:05.660Z,2.50
2018-08-17T14:47:34.399Z,2.73
2018-08-17T14:50:03.701Z,2.20
2018-08-17T14:52:33.130Z,2.83
2018-08-17T14:55:01.541Z,2.40
2018-08-17T14:57:29.763Z,2.00
2018-08-17T14:59:57.965Z,2.07
2018-08-17T15:02:26.143Z,1.60
2018-08-17T15:04:54.526Z,1.93
2018-08-17T15:07:22.854Z,1.73
2018-08-17T15:09:51.147Z,2.00
2018-08-17T15:12:19.383Z,2.37
2018-08-17T15:14:47.626Z,2.87
2018-08-17T15:17:15.827Z,1.73
2018-08-17T15:19:44.242Z,1.90
2018-08-17T15:22:13.200Z,2.07
2018-08-17T15:24:41.679Z,1.90
2018-08-17T15:27:10.115Z,2.03
2018-08-17T15:29:38.452Z,2.17
2018-08-17T15:32:06.672Z,1.97
2018-08-17T15:34:34.899Z,3.20
2018-08-17T15:37:03.288Z,2.20
2018-08-17T15:39:31.522Z,1.70
2018-08-17T15:41:59.869Z,1.97
2018-08-17T15:44:28.166Z,1.70
2018-08-17T15:46:57.539Z,1.57
2018-08-17T15:49:30.958Z,1.60
2018-08-17T15:51:59.954Z,1.63
2018-08-17T15:54:28.281Z,1.90
2018-08-17T15:56:56.571Z,1.67
2018-08-17T15:59:24.824Z,1.43
2018-08-17T16:01:53.268Z,1.63
2018-08-17T16:04:21.725Z,1.70
2018-08-17T16:06:50.118Z,1.50
2018-08-17T16:09:18.727Z,1.33
2018-08-17T16:11:46.991Z,1.20
2018-08-17T16:14:15.179Z,1.40
2018-08-17T16:16:43.467Z,1.30
2018-08-17T16:19:11.635Z,1.57
2018-08-17T16:21:39.811Z,2.87
2018-08-17T16:24:08.027Z,4.13
2018-08-17T16:26:36.202Z,2.10
2018-08-17T16:29:04.977Z,1.70
2018-08-17T16:31:37.338Z,1.63
2018-08-17T16:34:05.802Z,1.33
2018-08-17T16:36:36.126Z,1.40
2018-08-17T16:39:07.972Z,1.97
2018-08-17T16:41:36.180Z,1.67
2018-08-17T16:44:04.379Z,1.80
2018-08-17T16:46:32.742Z,1.33
2018-08-17T16:49:01.090Z,1.30
2018-08-17T16:51:29.153Z,1.63
2018-08-17T16:53:57.355Z,1.43
2018-08-17T16:56:25.554Z,1.20
2018-08-17T16:58:53.856Z,1.30
2018-08-17T17:01:22.084Z,1.37
2018-08-17T17:03:50.307Z,1.47
2018-08-17T17:06:18.529Z,0.93
2018-08-17T17:08:46.768Z,2.03
2018-08-17T17:11:15.005Z,1.50
2018-08-17T17:13:44.263Z,1.43
2018-08-17T17:16:12.607Z,1.37
2018-08-17T17:18:40.859Z,1.53
2018-08-17T17:21:09.230Z,1.70
2018-08-17T17:23:52.126Z,1.30
2018-08-17T17:26:20.430Z,1.27
2018-08-17T17:28:49.219Z,1.90
2018-08-17T17:31:17.803Z,1.63
2018-08-17T17:33:46.030Z,1.90
2018-08-17T17:36:14.242Z,1.63
2018-08-17T17:38:42.444Z,1.63
2018-08-17T17:41:10.623Z,1.30
2018-08-17T17:43:38.858Z,1.60
2018-08-17T17:46:07.098Z,1.70
2018-08-17T17:48:35.271Z,1.17
2018-08-17T17:51:03.484Z,2.13
2018-08-17T17:53:31.696Z,2.13
2018-08-17T17:55:59.877Z,1.63
2018-08-17T17:58:28.092Z,2.07
2018-08-17T18:01:01.905Z,1.97
2018-08-17T18:03:31.336Z,2.00
2018-08-17T18:06:01.419Z,2.07
2018-08-17T18:08:30.865Z,2.50
2018-08-17T18:10:59.243Z,2.03
2018-08-17T18:13:28.134Z,1.57
2018-08-17T18:15:56.356Z,1.90
2018-08-17T18:18:24.616Z,2.10
2018-08-17T18:20:53.135Z,1.80
2018-08-17T18:23:21.496Z,2.20
2018-08-17T18:25:49.762Z,2.00
2018-08-17T18:28:17.994Z,2.20
2018-08-17T18:30:47.580Z,1.53
2018-08-17T18:33:15.735Z,2.00
2018-08-17T18:35:43.981Z,2.17
2018-08-17T18:38:13.477Z,2.10
2018-08-17T18:40:41.695Z,2.30
2018-08-17T18:43:09.918Z,2.30
2018-08-17T18:45:38.215Z,2.07
2018-08-17T18:48:06.423Z,2.20
2018-08-17T18:50:34.619Z,2.63
2018-08-17T18:53:02.876Z,1.90
2018-08-17T18:55:31.302Z,2.20
2018-08-17T18:58:00.047Z,2.03
2018-08-17T19:00:28.469Z,2.00
2018-08-17T19:02:56.731Z,1.50
2018-08-17T19:05:24.974Z,2.03
2018-08-17T19:07:53.227Z,1.60
2018-08-17T19:10:22.250Z,2.27
2018-08-17T19:12:50.448Z,1.93
2018-08-17T19:15:18.798Z,2.20
2018-08-17T19:17:47.469Z,1.97
2018-08-17T19:20:17.635Z,1.50
2018-08-17T19:22:47.045Z,2.07
2018-08-17T19:25:16.748Z,1.90
2018-08-17T19:27:46.099Z,1.80
2018-08-17T19:30:21.029Z,1.63
2018-08-17T19:32:49.777Z,1.70
2018-08-17T19:35:18.876Z,1.33
2018-08-17T19:37:47.159Z,1.90
2018-08-17T19:40:15.778Z,1.97
2018-08-17T19:42:44.302Z,2.20
2018-08-17T19:45:13.490Z,2.10
2018-08-17T19:47:42.937Z,1.73
2018-08-17T19:50:11.661Z,1.80
2018-08-17T19:52:41.535Z,1.70
2018-08-17T19:55:10.314Z,1.73
2018-08-17T19:57:39.367Z,1.77
2018-08-17T20:00:09.955Z,3.83
2018-08-17T20:02:39.748Z,2.70
2018-08-17T20:05:09.030Z,5.10
2018-08-17T20:07:37.956Z,2.30
2018-08-17T20:10:06.707Z,2.07
2018-08-17T20:12:35.490Z,2.10
2018-08-17T20:26:30.915Z,1.73
2018-08-17T20:28:58.801Z,1.83
2018-08-17T20:31:27.149Z,1.53
2018-08-17T20:34:02.033Z,1.20
2018-08-17T20:36:30.255Z,1.70
2018-08-17T20:38:58.647Z,1.23
2018-08-17T20:41:26.838Z,1.60
2018-08-17T20:43:55.073Z,1.20
2018-08-17T20:46:23.336Z,1.40
2018-08-17T20:48:51.856Z,1.57
2018-08-17T20:51:25.256Z,1.63
2018-08-17T20:53:58.027Z,1.77
2018-08-17T20:56:26.861Z,1.63
2018-08-17T20:58:55.413Z,1.53
2018-08-17T21:01:24.639Z,1.23
2018-08-17T21:03:54.113Z,1.80
2018-08-17T21:06:22.380Z,1.83
2018-08-17T21:08:51.191Z,1.43
2018-08-17T21:11:20.121Z,1.77
2018-08-17T21:13:48.954Z,1.47
2018-08-17T21:16:17.258Z,1.67
2018-08-17T21:18:45.549Z,1.57
2018-08-17T21:21:13.847Z,1.40
2018-08-17T21:23:42.120Z,1.67
2018-08-17T21:26:10.290Z,1.83
2018-08-17T21:28:38.672Z,1.50
2018-08-17T21:31:07.083Z,2.03
2018-08-17T21:33:36.271Z,1.80
2018-08-17T21:36:04.655Z,1.70
2018-08-17T21:38:32.906Z,1.97
2018-08-17T21:41:01.940Z,1.80
2018-08-17T21:43:30.155Z,1.97
2018-08-17T21:46:03.594Z,2.60
2018-08-17T21:48:32.428Z,2.07
2018-08-17T21:51:01.061Z,2.80
2018-08-17T21:53:32.579Z,2.43
2018-08-17T21:56:01.604Z,3.10
2018-08-17T21:58:30.008Z,2.43
2018-08-17T22:00:59.518Z,2.20
2018-08-17T22:03:32.410Z,2.00
2018-08-17T22:06:00.766Z,2.13
2018-08-17T22:08:29.011Z,2.07
2018-08-17T22:10:57.621Z,2.20
2018-08-17T22:13:35.074Z,2.40
2018-08-17T22:16:03.742Z,1.97
2018-08-17T22:18:32.965Z,2.40
2018-08-17T22:21:01.131Z,2.10
2018-08-17T22:23:30.215Z,36.90
2018-08-17T22:25:59.661Z,23.93
2018-08-17T22:28:27.842Z,4.07
2018-08-17T22:30:56.784Z,3.00
2018-08-17T22:33:24.985Z,2.30
2018-08-17T22:35:55.461Z,1.57
2018-08-17T22:38:24.564Z,2.23
2018-08-17T22:40:52.999Z,2.13
2018-08-17T22:43:21.274Z,2.13
2018-08-17T22:45:49.856Z,2.10
2018-08-17T22:48:18.239Z,1.97
2018-08-17T22:50:46.404Z,2.13
2018-08-17T22:53:14.977Z,2.30
2018-08-17T22:55:43.198Z,2.30
2018-08-17T22:58:11.784Z,2.07
2018-08-17T23:00:40.005Z,1.97
2018-08-17T23:03:09.922Z,2.73
2018-08-17T23:05:38.669Z,2.30
2018-08-17T23:08:06.895Z,2.00
2018-08-17T23:10:36.521Z,2.10
2018-08-17T23:13:05.922Z,2.47
2018-08-17T23:15:34.224Z,1.87
2018-08-17T23:18:06.064Z,1.90
2018-08-17T23:20:37.786Z,2.10
2018-08-17T23:23:09.151Z,2.87
2018-08-17T23:25:37.856Z,2.10
2018-08-17T23:28:08.133Z,3.10
2018-08-17T23:30:36.380Z,2.40
2018-08-17T23:33:06.150Z,2.60
2018-08-17T23:35:34.439Z,2.10
2018-08-17T23:38:02.743Z,2.80
2018-08-17T23:40:32.599Z,2.97
2018-08-17T23:43:00.887Z,2.30
2018-08-17T23:45:31.933Z,2.70
2018-08-17T23:48:03.201Z,2.90
2018-08-17T23:50:33.560Z,2.53
2018-08-17T23:53:02.693Z,2.50
2018-08-17T23:55:32.158Z,2.83
2018-08-17T23:58:01.086Z,2.83
